sensor_id;sensor_type;location;lat;lon;timestamp;pressure;altitude;pressure_sealevel;temperature;humidity
68807;BME280;55800;54.272;18.558;2024-02-28T00:01:49;101167.63;;;5.00;91.46
68807;BME280;55800;54.272;18.558;2024-02-28T00:04:20;101167.63;;;5.00;91.59
68807;BME280;55800;54.272;18.558;2024-02-28T00:06:49;101168.50;;;5.00;91.47
68807;BME280;55800;54.272;18.558;2024-02-28T00:09:20;101165.81;;;5.02;91.45
68807;BME280;55800;54.272;18.558;2024-02-28T00:11:50;101158.75;;;5.04;91.74
68807;BME280;55800;54.272;18.558;2024-02-28T00:14:20;101159.66;;;5.01;91.86
68807;BME280;55800;54.272;18.558;2024-02-28T00:16:50;101160.53;;;5.02;91.83
68807;BME280;55800;54.272;18.558;2024-02-28T00:19:19;101155.22;;;5.02;91.86
68807;BME280;55800;54.272;18.558;2024-02-28T00:21:50;101160.53;;;5.02;91.68
68807;BME280;55800;54.272;18.558;2024-02-28T00:24:21;101164.03;;;5.04;92.28
68807;BME280;55800;54.272;18.558;2024-02-28T00:26:51;101168.44;;;5.03;91.71
68807;BME280;55800;54.272;18.558;2024-02-28T00:29:21;101173.75;;;5.03;91.88
68807;BME280;55800;54.272;18.558;2024-02-28T00:31:50;101176.38;;;5.05;91.54
68807;BME280;55800;54.272;18.558;2024-02-28T00:34:20;101179.06;;;5.02;92.17
68807;BME280;55800;54.272;18.558;2024-02-28T00:36:49;101174.66;;;5.02;92.03
68807;BME280;55800;54.272;18.558;2024-02-28T00:39:25;101177.31;;;5.02;92.09
68807;BME280;55800;54.272;18.558;2024-02-28T00:41:54;101180.81;;;5.03;92.20
68807;BME280;55800;54.272;18.558;2024-02-28T00:44:24;101179.09;;;5.00;91.61
68807;BME280;55800;54.272;18.558;2024-02-28T00:46:53;101178.25;;;4.98;91.55
68807;BME280;55800;54.272;18.558;2024-02-28T00:49:23;101175.59;;;4.95;91.81
68807;BME280;55800;54.272;18.558;2024-02-28T00:51:53;101175.63;;;4.92;92.09
68807;BME280;55800;54.272;18.558;2024-02-28T00:54:23;101177.38;;;4.95;91.97
68807;BME280;55800;54.272;18.558;2024-02-28T00:56:54;101176.47;;;4.94;91.68
68807;BME280;55800;54.272;18.558;2024-02-28T00:59:23;101168.59;;;4.91;91.78
68807;BME280;55800;54.272;18.558;2024-02-28T01:01:53;101173.88;;;4.91;91.66
68807;BME280;55800;54.272;18.558;2024-02-28T01:04:23;101175.63;;;4.92;91.74
68807;BME280;55800;54.272;18.558;2024-02-28T01:06:52;101171.22;;;4.93;91.78
68807;BME280;55800;54.272;18.558;2024-02-28T01:09:24;101177.41;;;4.93;91.69
68807;BME280;55800;54.272;18.558;2024-02-28T01:11:53;101169.47;;;4.92;91.52
68807;BME280;55800;54.272;18.558;2024-02-28T01:14:23;101160.63;;;4.93;91.60
68807;BME280;55800;54.272;18.558;2024-02-28T01:16:53;101161.50;;;4.93;91.75
68807;BME280;55800;54.272;18.558;2024-02-28T01:19:23;101153.53;;;4.95;91.82
68807;BME280;55800;54.272;18.558;2024-02-28T01:21:52;101157.09;;;4.94;91.97
68807;BME280;55800;54.272;18.558;2024-02-28T01:24:21;101153.53;;;4.95;91.88
68807;BME280;55800;54.272;18.558;2024-02-28T01:26:52;101165.03;;;4.94;91.51
68807;BME280;55800;54.272;18.558;2024-02-28T01:29:22;101161.53;;;4.92;91.59
68807;BME280;55800;54.272;18.558;2024-02-28T01:31:51;101163.25;;;4.93;91.49
68807;BME280;55800;54.272;18.558;2024-02-28T01:34:21;101160.63;;;4.93;91.55
68807;BME280;55800;54.272;18.558;2024-02-28T01:36:50;101150.91;;;4.90;91.57
68807;BME280;55800;54.272;18.558;2024-02-28T01:39:20;101152.72;;;4.90;91.49
68807;BME280;55800;54.272;18.558;2024-02-28T01:41:54;101150.94;;;4.89;91.59
68807;BME280;55800;54.272;18.558;2024-02-28T01:44:25;101156.25;;;4.89;91.51
68807;BME280;55800;54.272;18.558;2024-02-28T01:46:55;101156.25;;;4.89;91.26
68807;BME280;55800;54.272;18.558;2024-02-28T01:49:26;101150.06;;;4.90;91.45
68807;BME280;55800;54.272;18.558;2024-02-28T01:51:56;101148.28;;;4.90;91.28
68807;BME280;55800;54.272;18.558;2024-02-28T01:54:28;101153.56;;;4.92;91.37
68807;BME280;55800;54.272;18.558;2024-02-28T01:57:00;101148.28;;;4.92;91.32
68807;BME280;55800;54.272;18.558;2024-02-28T01:59:30;101142.97;;;4.93;91.26
68807;BME280;55800;54.272;18.558;2024-02-28T02:02:00;101146.50;;;4.94;91.33
68807;BME280;55800;54.272;18.558;2024-02-28T02:04:30;101141.19;;;4.94;91.18
68807;BME280;55800;54.272;18.558;2024-02-28T02:06:59;101144.72;;;4.93;91.27
68807;BME280;55800;54.272;18.558;2024-02-28T02:09:30;101144.72;;;4.93;91.36
68807;BME280;55800;54.272;18.558;2024-02-28T02:12:04;101142.97;;;4.93;91.29
68807;BME280;55800;54.272;18.558;2024-02-28T02:14:33;101150.00;;;4.94;91.30
68807;BME280;55800;54.272;18.558;2024-02-28T02:17:03;101150.88;;;4.95;91.15
68807;BME280;55800;54.272;18.558;2024-02-28T02:19:32;101148.22;;;4.95;91.31
68807;BME280;55800;54.272;18.558;2024-02-28T02:22:20;101148.22;;;4.95;91.22
68807;BME280;55800;54.272;18.558;2024-02-28T02:24:52;101142.06;;;4.93;91.27
68807;BME280;55800;54.272;18.558;2024-02-28T02:27:23;101151.78;;;4.92;91.17
68807;BME280;55800;54.272;18.558;2024-02-28T02:29:53;101154.44;;;4.92;91.11
68807;BME280;55800;54.272;18.558;2024-02-28T02:32:22;101150.94;;;4.92;91.02
68807;BME280;55800;54.272;18.558;2024-02-28T02:34:52;101152.69;;;4.91;90.84
68807;BME280;55800;54.272;18.558;2024-02-28T02:37:21;101154.44;;;4.91;91.02
68807;BME280;55800;54.272;18.558;2024-02-28T02:39:52;101149.19;;;4.89;90.77
68807;BME280;55800;54.272;18.558;2024-02-28T02:42:22;101145.69;;;4.86;91.00
68807;BME280;55800;54.272;18.558;2024-02-28T02:44:51;101151.84;;;4.86;91.11
68807;BME280;55800;54.272;18.558;2024-02-28T02:47:21;101146.56;;;4.85;91.03
68807;BME280;55800;54.272;18.558;2024-02-28T02:49:50;101147.44;;;4.84;91.18
68807;BME280;55800;54.272;18.558;2024-02-28T02:52:20;101145.72;;;4.83;91.13
68807;BME280;55800;54.272;18.558;2024-02-28T02:54:50;101148.38;;;4.81;91.16
68807;BME280;55800;54.272;18.558;2024-02-28T02:57:21;101140.44;;;4.81;91.27
68807;BME280;55800;54.272;18.558;2024-02-28T02:59:51;101141.28;;;4.82;91.15
68807;BME280;55800;54.272;18.558;2024-02-28T03:02:20;101144.84;;;4.82;90.93
68807;BME280;55800;54.272;18.558;2024-02-28T03:04:50;101139.53;;;4.82;91.09
68807;BME280;55800;54.272;18.558;2024-02-28T03:07:19;101136.00;;;4.83;91.00
68807;BME280;55800;54.272;18.558;2024-02-28T03:09:49;101134.22;;;4.84;90.89
68807;BME280;55800;54.272;18.558;2024-02-28T03:12:20;101135.97;;;4.85;90.85
68807;BME280;55800;54.272;18.558;2024-02-28T03:14:50;101134.22;;;4.84;91.01
68807;BME280;55800;54.272;18.558;2024-02-28T03:17:19;101136.88;;;4.85;90.93
68807;BME280;55800;54.272;18.558;2024-02-28T03:19:49;101135.97;;;4.85;90.80
68807;BME280;55800;54.272;18.558;2024-02-28T03:22:18;101128.91;;;4.84;90.76
68807;BME280;55800;54.272;18.558;2024-02-28T03:24:48;101130.72;;;4.83;90.89
68807;BME280;55800;54.272;18.558;2024-02-28T03:27:17;101138.66;;;4.83;90.96
68807;BME280;55800;54.272;18.558;2024-02-28T03:29:48;101141.31;;;4.83;90.99
68807;BME280;55800;54.272;18.558;2024-02-28T03:32:18;101144.81;;;4.84;91.02
68807;BME280;55800;54.272;18.558;2024-02-28T03:34:47;101145.72;;;4.83;91.15
68807;BME280;55800;54.272;18.558;2024-02-28T03:37:17;101154.56;;;4.83;91.01
68807;BME280;55800;54.272;18.558;2024-02-28T03:39:47;101143.03;;;4.84;91.13
68807;BME280;55800;54.272;18.558;2024-02-28T03:42:16;101151.00;;;4.86;90.99
68807;BME280;55800;54.272;18.558;2024-02-28T03:44:46;101151.00;;;4.86;91.01
68807;BME280;55800;54.272;18.558;2024-02-28T03:47:16;101146.56;;;4.85;91.07
68807;BME280;55800;54.272;18.558;2024-02-28T03:49:46;101148.34;;;4.86;91.11
68807;BME280;55800;54.272;18.558;2024-02-28T03:52:15;101146.56;;;4.85;91.09
68807;BME280;55800;54.272;18.558;2024-02-28T03:54:45;101139.50;;;4.85;91.01
68807;BME280;55800;54.272;18.558;2024-02-28T03:57:14;101139.50;;;4.84;91.12
68807;BME280;55800;54.272;18.558;2024-02-28T03:59:44;101133.34;;;4.83;90.96
68807;BME280;55800;54.272;18.558;2024-02-28T04:02:13;101136.00;;;4.83;91.08
68807;BME280;55800;54.272;18.558;2024-02-28T04:04:44;101141.31;;;4.83;90.94
68807;BME280;55800;54.272;18.558;2024-02-28T04:07:14;101139.50;;;4.84;91.09
68807;BME280;55800;54.272;18.558;2024-02-28T04:09:43;101139.50;;;4.85;91.11
68807;BME280;55800;54.272;18.558;2024-02-28T04:12:13;101139.50;;;4.85;91.09
68807;BME280;55800;54.272;18.558;2024-02-28T04:14:43;101130.69;;;4.85;91.01
68807;BME280;55800;54.272;18.558;2024-02-28T04:17:12;101123.63;;;4.85;91.32
68807;BME280;55800;54.272;18.558;2024-02-28T04:19:43;101129.81;;;4.86;91.18
68807;BME280;55800;54.272;18.558;2024-02-28T04:22:13;101125.38;;;4.85;91.08
68807;BME280;55800;54.272;18.558;2024-02-28T04:24:42;101126.28;;;4.82;91.16
68807;BME280;55800;54.272;18.558;2024-02-28T04:27:12;101139.50;;;4.84;90.84
68807;BME280;55800;54.272;18.558;2024-02-28T04:29:41;101134.22;;;4.84;90.81
68807;BME280;55800;54.272;18.558;2024-02-28T04:32:11;101137.78;;;4.83;90.79
68807;BME280;55800;54.272;18.558;2024-02-28T04:34:40;101141.28;;;4.82;90.63
68807;BME280;55800;54.272;18.558;2024-02-28T04:37:11;101130.69;;;4.82;91.19
68807;BME280;55800;54.272;18.558;2024-02-28T04:39:41;101135.13;;;4.83;91.12
68807;BME280;55800;54.272;18.558;2024-02-28T04:42:10;101134.25;;;4.81;91.11
68807;BME280;55800;54.272;18.558;2024-02-28T04:44:40;101135.16;;;4.81;91.58
68807;BME280;55800;54.272;18.558;2024-02-28T04:47:09;101139.59;;;4.79;91.53
68807;BME280;55800;54.272;18.558;2024-02-28T04:49:39;101142.22;;;4.78;92.01
68807;BME280;55800;54.272;18.558;2024-02-28T04:52:10;101144.91;;;4.74;91.78
68807;BME280;55800;54.272;18.558;2024-02-28T04:54:40;101144.00;;;4.75;91.94
68807;BME280;55800;54.272;18.558;2024-02-28T04:57:11;101148.41;;;4.75;91.97
68807;BME280;55800;54.272;18.558;2024-02-28T04:59:42;101149.34;;;4.74;92.45
68807;BME280;55800;54.272;18.558;2024-02-28T05:02:12;101149.34;;;4.74;92.19
68807;BME280;55800;54.272;18.558;2024-02-28T05:04:42;101151.13;;;4.72;92.34
68807;BME280;55800;54.272;18.558;2024-02-28T05:07:12;101145.84;;;4.69;92.55
68807;BME280;55800;54.272;18.558;2024-02-28T05:09:42;101141.44;;;4.69;92.83
68807;BME280;55800;54.272;18.558;2024-02-28T05:12:11;101152.94;;;4.68;92.10
68807;BME280;55800;54.272;18.558;2024-02-28T05:14:41;101150.28;;;4.67;92.77
68807;BME280;55800;54.272;18.558;2024-02-28T05:17:10;101148.50;;;4.67;92.82
68807;BME280;55800;54.272;18.558;2024-02-28T05:19:40;101140.59;;;4.66;92.76
68807;BME280;55800;54.272;18.558;2024-02-28T05:22:09;101139.72;;;4.62;92.43
68807;BME280;55800;54.272;18.558;2024-02-28T05:24:41;101145.00;;;4.62;92.63
68807;BME280;55800;54.272;18.558;2024-02-28T05:27:11;101145.00;;;4.62;92.37
68807;BME280;55800;54.272;18.558;2024-02-28T05:29:41;101153.88;;;4.61;92.90
68807;BME280;55800;54.272;18.558;2024-02-28T05:32:10;101160.03;;;4.60;92.26
68807;BME280;55800;54.272;18.558;2024-02-28T05:34:41;101163.59;;;4.59;92.12
68807;BME280;55800;54.272;18.558;2024-02-28T05:37:10;101166.25;;;4.59;92.24
68807;BME280;55800;54.272;18.558;2024-02-28T05:39:41;101168.84;;;4.62;92.56
68807;BME280;55800;54.272;18.558;2024-02-28T05:42:10;101166.25;;;4.59;92.19
68807;BME280;55800;54.272;18.558;2024-02-28T05:44:40;101161.81;;;4.58;92.43
68807;BME280;55800;54.272;18.558;2024-02-28T05:47:09;101169.78;;;4.60;93.01
68807;BME280;55800;54.272;18.558;2024-02-28T05:49:39;101173.28;;;4.60;92.49
68807;BME280;55800;54.272;18.558;2024-02-28T05:52:09;101167.13;;;4.60;93.15
68807;BME280;55800;54.272;18.558;2024-02-28T05:54:41;101168.91;;;4.58;92.91
68807;BME280;55800;54.272;18.558;2024-02-28T05:57:10;101168.88;;;4.61;93.09
68807;BME280;55800;54.272;18.558;2024-02-28T05:59:40;101173.28;;;4.60;93.22
68807;BME280;55800;54.272;18.558;2024-02-28T06:02:09;101165.38;;;4.59;93.34
68807;BME280;55800;54.272;18.558;2024-02-28T06:04:39;101179.44;;;4.62;93.18
68807;BME280;55800;54.272;18.558;2024-02-28T06:07:08;101178.59;;;4.59;92.96
68807;BME280;55800;54.272;18.558;2024-02-28T06:09:38;101182.16;;;4.56;93.52
68807;BME280;55800;54.272;18.558;2024-02-28T06:12:09;101183.91;;;4.57;93.30
68807;BME280;55800;54.272;18.558;2024-02-28T06:14:38;101188.34;;;4.57;92.87
68807;BME280;55800;54.272;18.558;2024-02-28T06:17:08;101189.25;;;4.53;92.65
68807;BME280;55800;54.272;18.558;2024-02-28T06:19:37;101176.91;;;4.50;93.13
68807;BME280;55800;54.272;18.558;2024-02-28T06:22:07;101184.84;;;4.52;93.31
68807;BME280;55800;54.272;18.558;2024-02-28T06:24:36;101191.91;;;4.51;93.57
68807;BME280;55800;54.272;18.558;2024-02-28T06:27:07;101189.28;;;4.51;93.04
68807;BME280;55800;54.272;18.558;2024-02-28T06:29:40;101184.84;;;4.50;93.08
68807;BME280;55800;54.272;18.558;2024-02-28T06:32:10;101184.84;;;4.52;93.50
68807;BME280;55800;54.272;18.558;2024-02-28T06:34:39;101186.59;;;4.53;93.52
68807;BME280;55800;54.272;18.558;2024-02-28T06:37:09;101184.84;;;4.53;93.56
68807;BME280;55800;54.272;18.558;2024-02-28T06:39:39;101187.47;;;4.55;93.64
68807;BME280;55800;54.272;18.558;2024-02-28T06:42:10;101183.94;;;4.54;93.51
68807;BME280;55800;54.272;18.558;2024-02-28T06:44:40;101187.50;;;4.53;93.31
68807;BME280;55800;54.272;18.558;2024-02-28T06:47:09;101187.47;;;4.52;92.85
68807;BME280;55800;54.272;18.558;2024-02-28T06:49:39;101190.13;;;4.52;93.36
68807;BME280;55800;54.272;18.558;2024-02-28T06:52:09;101194.56;;;4.51;92.79
68807;BME280;55800;54.272;18.558;2024-02-28T06:54:38;101203.38;;;4.50;93.32
68807;BME280;55800;54.272;18.558;2024-02-28T06:57:09;101203.38;;;4.53;93.07
68807;BME280;55800;54.272;18.558;2024-02-28T06:59:39;101202.50;;;4.53;92.97
68807;BME280;55800;54.272;18.558;2024-02-28T07:02:09;101204.25;;;4.55;93.34
68807;BME280;55800;54.272;18.558;2024-02-28T07:04:38;101202.50;;;4.53;93.16
68807;BME280;55800;54.272;18.558;2024-02-28T07:07:09;101201.59;;;4.52;93.10
68807;BME280;55800;54.272;18.558;2024-02-28T07:09:38;101198.03;;;4.56;93.72
68807;BME280;55800;54.272;18.558;2024-02-28T07:12:09;101205.13;;;4.54;93.41
68807;BME280;55800;54.272;18.558;2024-02-28T07:14:39;101207.72;;;4.59;93.88
68807;BME280;55800;54.272;18.558;2024-02-28T07:17:08;101209.47;;;4.61;93.50
68807;BME280;55800;54.272;18.558;2024-02-28T07:19:39;101212.97;;;4.65;93.47
68807;BME280;55800;54.272;18.558;2024-02-28T07:22:08;101206.78;;;4.64;93.37
68807;BME280;55800;54.272;18.558;2024-02-28T07:24:37;101207.69;;;4.66;94.59
68807;BME280;55800;54.272;18.558;2024-02-28T07:27:07;101215.63;;;4.65;93.60
68807;BME280;55800;54.272;18.558;2024-02-28T07:29:38;101213.84;;;4.65;94.13
68807;BME280;55800;54.272;18.558;2024-02-28T07:32:07;101207.69;;;4.65;93.47
68807;BME280;55800;54.272;18.558;2024-02-28T07:34:37;101205.88;;;4.70;94.01
68807;BME280;55800;54.272;18.558;2024-02-28T07:37:06;101216.44;;;4.73;93.75
68807;BME280;55800;54.272;18.558;2024-02-28T07:39:35;101218.19;;;4.74;93.46
68807;BME280;55800;54.272;18.558;2024-02-28T07:42:05;101214.63;;;4.75;93.42
68807;BME280;55800;54.272;18.558;2024-02-28T07:44:35;101220.84;;;4.77;93.52
68807;BME280;55800;54.272;18.558;2024-02-28T07:47:06;101215.50;;;4.80;94.02
68807;BME280;55800;54.272;18.558;2024-02-28T07:49:36;101221.66;;;4.82;93.48
68807;BME280;55800;54.272;18.558;2024-02-28T07:52:05;101224.28;;;4.84;93.41
68807;BME280;55800;54.272;18.558;2024-02-28T07:54:35;101227.78;;;4.89;93.74
68807;BME280;55800;54.272;18.558;2024-02-28T07:57:05;101230.38;;;4.93;93.68
68807;BME280;55800;54.272;18.558;2024-02-28T07:59:39;101223.31;;;4.92;93.44
68807;BME280;55800;54.272;18.558;2024-02-28T08:02:11;101236.56;;;4.92;93.47
68807;BME280;55800;54.272;18.558;2024-02-28T08:04:41;101238.34;;;4.92;93.47
68807;BME280;55800;54.272;18.558;2024-02-28T08:07:11;101231.28;;;4.94;93.57
68807;BME280;55800;54.272;18.558;2024-02-28T08:09:40;101242.72;;;4.97;93.45
68807;BME280;55800;54.272;18.558;2024-02-28T08:12:10;101232.13;;;4.97;93.23
68807;BME280;55800;54.272;18.558;2024-02-28T08:14:39;101239.19;;;4.98;93.24
68807;BME280;55800;54.272;18.558;2024-02-28T08:17:10;101244.50;;;4.98;93.31
68807;BME280;55800;54.272;18.558;2024-02-28T08:19:42;101240.03;;;5.02;93.41
68807;BME280;55800;54.272;18.558;2024-02-28T08:22:11;101238.25;;;5.02;93.14
68807;BME280;55800;54.272;18.558;2024-02-28T08:24:41;101244.41;;;5.04;93.21
68807;BME280;55800;54.272;18.558;2024-02-28T08:27:10;101226.72;;;5.05;93.40
68807;BME280;55800;54.272;18.558;2024-02-28T08:29:40;101237.31;;;5.08;93.17
68807;BME280;55800;54.272;18.558;2024-02-28T08:32:13;101237.28;;;5.12;93.10
68807;BME280;55800;54.272;18.558;2024-02-28T08:34:44;101250.50;;;5.14;93.34
68807;BME280;55800;54.272;18.558;2024-02-28T08:37:14;101243.41;;;5.17;93.36
68807;BME280;55800;54.272;18.558;2024-02-28T08:39:45;101246.03;;;5.20;93.49
68807;BME280;55800;54.272;18.558;2024-02-28T08:42:15;101242.50;;;5.21;93.57
68807;BME280;55800;54.272;18.558;2024-02-28T08:44:44;101239.78;;;5.26;93.44
68807;BME280;55800;54.272;18.558;2024-02-28T08:47:17;101240.63;;;5.29;93.49
68807;BME280;55800;54.272;18.558;2024-02-28T08:49:47;101238.84;;;5.31;93.51
68807;BME280;55800;54.272;18.558;2024-02-28T08:52:16;101236.16;;;5.33;93.66
68807;BME280;55800;54.272;18.558;2024-02-28T08:54:46;101244.09;;;5.34;93.52
68807;BME280;55800;54.272;18.558;2024-02-28T08:57:16;101239.66;;;5.38;93.69
68807;BME280;55800;54.272;18.558;2024-02-28T08:59:48;101244.91;;;5.41;93.64
68807;BME280;55800;54.272;18.558;2024-02-28T09:02:22;101244.00;;;5.43;94.15
68807;BME280;55800;54.272;18.558;2024-02-28T09:04:52;101251.94;;;5.45;93.70
68807;BME280;55800;54.272;18.558;2024-02-28T09:07:25;101245.72;;;5.47;93.89
68807;BME280;55800;54.272;18.558;2024-02-28T09:09:54;101255.44;;;5.48;94.04
68807;BME280;55800;54.272;18.558;2024-02-28T09:12:24;101255.41;;;5.50;94.15
68807;BME280;55800;54.272;18.558;2024-02-28T09:14:55;101257.22;;;5.48;93.87
68807;BME280;55800;54.272;18.558;2024-02-28T09:17:27;101251.91;;;5.48;93.65
68807;BME280;55800;54.272;18.558;2024-02-28T09:19:56;101258.97;;;5.47;93.60
68807;BME280;55800;54.272;18.558;2024-02-28T09:22:29;101262.50;;;5.48;93.63
68807;BME280;55800;54.272;18.558;2024-02-28T09:24:59;101258.97;;;5.49;93.41
68807;BME280;55800;54.272;18.558;2024-02-28T09:27:28;101254.53;;;5.49;93.60
68807;BME280;55800;54.272;18.558;2024-02-28T09:29:58;101255.41;;;5.50;93.40
68807;BME280;55800;54.272;18.558;2024-02-28T09:32:28;101256.31;;;5.50;93.42
68807;BME280;55800;54.272;18.558;2024-02-28T09:34:58;101263.38;;;5.50;93.51
68807;BME280;55800;54.272;18.558;2024-02-28T09:37:27;101262.44;;;5.54;93.42
68807;BME280;55800;54.272;18.558;2024-02-28T09:39:57;101258.94;;;5.52;93.41
68807;BME280;55800;54.272;18.558;2024-02-28T09:42:26;101264.25;;;5.52;93.63
68807;BME280;55800;54.272;18.558;2024-02-28T09:44:57;101270.41;;;5.56;93.63
68807;BME280;55800;54.272;18.558;2024-02-28T09:47:30;101267.72;;;5.57;93.63
68807;BME280;55800;54.272;18.558;2024-02-28T09:50:03;101267.72;;;5.57;93.72
68807;BME280;55800;54.272;18.558;2024-02-28T09:52:33;101268.56;;;5.61;93.61
68807;BME280;55800;54.272;18.558;2024-02-28T09:55:04;101271.19;;;5.62;93.65
68807;BME280;55800;54.272;18.558;2024-02-28T09:57:35;101273.84;;;5.64;93.76
68807;BME280;55800;54.272;18.558;2024-02-28T10:00:07;101278.22;;;5.68;93.74
68807;BME280;55800;54.272;18.558;2024-02-28T10:02:40;101279.06;;;5.71;93.78
68807;BME280;55800;54.272;18.558;2024-02-28T10:05:11;101285.19;;;5.75;93.96
68807;BME280;55800;54.272;18.558;2024-02-28T10:07:40;101282.53;;;5.76;93.99
68807;BME280;55800;54.272;18.558;2024-02-28T10:10:10;101272.78;;;5.78;93.94
68807;BME280;55800;54.272;18.558;2024-02-28T10:12:41;101286.91;;;5.80;94.32
68807;BME280;55800;54.272;18.558;2024-02-28T10:15:12;101278.03;;;5.81;93.99
68807;BME280;55800;54.272;18.558;2024-02-28T10:17:43;101279.81;;;5.85;93.98
68807;BME280;55800;54.272;18.558;2024-02-28T10:20:13;101284.19;;;5.88;93.78
68807;BME280;55800;54.272;18.558;2024-02-28T10:22:43;101285.94;;;5.90;93.93
68807;BME280;55800;54.272;18.558;2024-02-28T10:25:13;101288.56;;;5.93;93.98
68807;BME280;55800;54.272;18.558;2024-02-28T10:27:42;101286.75;;;5.95;93.94
68807;BME280;55800;54.272;18.558;2024-02-28T10:30:12;101293.78;;;5.99;94.03
68807;BME280;55800;54.272;18.558;2024-02-28T10:32:50;101293.72;;;6.02;94.06
68807;BME280;55800;54.272;18.558;2024-02-28T10:35:20;101301.66;;;6.05;94.31
68807;BME280;55800;54.272;18.558;2024-02-28T10:37:53;101309.59;;;6.08;94.54
68807;BME280;55800;54.272;18.558;2024-02-28T10:40:24;101307.81;;;6.10;94.29
68807;BME280;55800;54.272;18.558;2024-02-28T10:42:56;101309.53;;;6.11;94.19
68807;BME280;55800;54.272;18.558;2024-02-28T10:45:28;101313.09;;;6.12;94.05
68807;BME280;55800;54.272;18.558;2024-02-28T10:48:20;101298.03;;;6.11;94.13
68807;BME280;55800;54.272;18.558;2024-02-28T10:50:51;101298.03;;;6.12;93.95
68807;BME280;55800;54.272;18.558;2024-02-28T10:53:32;101296.25;;;6.13;93.87
68807;BME280;55800;54.272;18.558;2024-02-28T10:56:06;101294.47;;;6.13;93.97
68807;BME280;55800;54.272;18.558;2024-02-28T10:58:43;101297.13;;;6.13;94.11
68807;BME280;55800;54.272;18.558;2024-02-28T11:01:17;101304.19;;;6.16;94.01
68807;BME280;55800;54.272;18.558;2024-02-28T11:03:50;101306.81;;;6.19;94.21
68807;BME280;55800;54.272;18.558;2024-02-28T11:06:21;101312.94;;;6.22;94.09
68807;BME280;55800;54.272;18.558;2024-02-28T11:08:52;101308.47;;;6.26;94.25
68807;BME280;55800;54.272;18.558;2024-02-28T11:11:23;101306.66;;;6.28;94.26
68807;BME280;55800;54.272;18.558;2024-02-28T11:13:52;101303.09;;;6.30;94.16
68807;BME280;55800;54.272;18.558;2024-02-28T11:16:30;101296.88;;;6.33;94.20
68807;BME280;55800;54.272;18.558;2024-02-28T11:19:02;101296.81;;;6.38;94.43
68807;BME280;55800;54.272;18.558;2024-02-28T11:21:35;101299.41;;;6.42;94.20
68807;BME280;55800;54.272;18.558;2024-02-28T11:24:05;101298.47;;;6.46;94.52
68807;BME280;55800;54.272;18.558;2024-02-28T11:26:36;101298.41;;;6.51;94.38
68807;BME280;55800;54.272;18.558;2024-02-28T11:29:08;101295.63;;;6.58;94.60
68807;BME280;55800;54.272;18.558;2024-02-28T11:31:38;101302.63;;;6.62;94.74
68807;BME280;55800;54.272;18.558;2024-02-28T11:34:08;101315.88;;;6.64;94.80
68807;BME280;55800;54.272;18.558;2024-02-28T11:36:38;101319.44;;;6.66;94.81
68807;BME280;55800;54.272;18.558;2024-02-28T11:39:10;101322.94;;;6.68;94.54
68807;BME280;55800;54.272;18.558;2024-02-28T11:41:39;101310.53;;;6.67;94.51
68807;BME280;55800;54.272;18.558;2024-02-28T11:44:09;101314.06;;;6.69;94.47
68807;BME280;55800;54.272;18.558;2024-02-28T11:46:42;101316.72;;;6.69;94.25
68807;BME280;55800;54.272;18.558;2024-02-28T11:49:13;101310.50;;;6.70;94.12
68807;BME280;55800;54.272;18.558;2024-02-28T11:51:45;101314.03;;;6.70;94.20
68807;BME280;55800;54.272;18.558;2024-02-28T11:54:15;101305.19;;;6.70;94.31
68807;BME280;55800;54.272;18.558;2024-02-28T11:56:44;101314.00;;;6.73;94.36
68807;BME280;55800;54.272;18.558;2024-02-28T11:59:14;101318.38;;;6.76;94.21
68807;BME280;55800;54.272;18.558;2024-02-28T12:01:44;101325.44;;;6.77;94.01
68807;BME280;55800;54.272;18.558;2024-02-28T12:04:17;101321.94;;;6.76;93.94
68807;BME280;55800;54.272;18.558;2024-02-28T12:06:47;101328.09;;;6.77;94.02
68807;BME280;55800;54.272;18.558;2024-02-28T12:09:16;101336.06;;;6.77;93.90
68807;BME280;55800;54.272;18.558;2024-02-28T12:12:01;101332.63;;;6.72;94.10
68807;BME280;55800;54.272;18.558;2024-02-28T12:14:32;101337.00;;;6.73;94.20
68807;BME280;55800;54.272;18.558;2024-02-28T12:17:05;101338.78;;;6.74;94.05
68807;BME280;55800;54.272;18.558;2024-02-28T12:19:37;101337.91;;;6.73;93.78
68807;BME280;55800;54.272;18.558;2024-02-28T12:22:08;101347.66;;;6.73;93.88
68807;BME280;55800;54.272;18.558;2024-02-28T12:24:38;101342.41;;;6.70;93.90
68807;BME280;55800;54.272;18.558;2024-02-28T12:27:07;101331.81;;;6.67;94.16
68807;BME280;55800;54.272;18.558;2024-02-28T12:29:37;101326.47;;;6.67;94.12
68807;BME280;55800;54.272;18.558;2024-02-28T12:32:07;101326.47;;;6.67;94.13
68807;BME280;55800;54.272;18.558;2024-02-28T12:34:37;101331.81;;;6.67;94.29
68807;BME280;55800;54.272;18.558;2024-02-28T12:37:07;101339.75;;;6.68;94.27
68807;BME280;55800;54.272;18.558;2024-02-28T12:39:37;101335.31;;;6.69;94.30
68807;BME280;55800;54.272;18.558;2024-02-28T12:42:06;101335.31;;;6.69;94.27
68807;BME280;55800;54.272;18.558;2024-02-28T12:44:36;101326.44;;;6.68;94.26
68807;BME280;55800;54.272;18.558;2024-02-28T12:47:07;101325.53;;;6.71;94.28
68807;BME280;55800;54.272;18.558;2024-02-28T12:49:38;101322.91;;;6.69;94.42
68807;BME280;55800;54.272;18.558;2024-02-28T12:52:07;101326.44;;;6.70;94.33
68807;BME280;55800;54.272;18.558;2024-02-28T12:54:37;101328.19;;;6.71;94.50
68807;BME280;55800;54.272;18.558;2024-02-28T12:57:06;101327.31;;;6.70;94.55
68807;BME280;55800;54.272;18.558;2024-02-28T12:59:36;101339.66;;;6.76;94.41
68807;BME280;55800;54.272;18.558;2024-02-28T13:02:07;101340.53;;;6.75;94.44
68807;BME280;55800;54.272;18.558;2024-02-28T13:04:39;101332.59;;;6.73;94.62
68807;BME280;55800;54.272;18.558;2024-02-28T13:07:09;101336.13;;;6.74;94.74